Ankara, Turkey
Current Conditions -  °F | °C
As of 10:20 AM on Saturday 25 Oct 2014 (Local Time) from LTAC Reporting Station
Rain Showers Rain Showers  
Wind Chill: 52°   Ceiling: 3000
Heat Index: 52°   Visibility: 4mi
Dew Point: 50°   Wind: 1mph
Humidity: 94%   Direction: NA
Pressure: 30"   Gusts: NA
Location:  39.93°N, 32.85°E
Report Text: LTAC 250720Z VRB01KT 6000 -SHRA BKN030 BKN080 11/10 Q1016 NOSIG
Loading
Personal Weather Stations






























Interactive Weather Map
Tropical Storm Tracking
New forecast layout! Learn more

10-Day Weather Forecast

Advertisements
Track Severe Weather on mobile